sensor_id;sensor_type;location;lat;lon;timestamp;pressure;altitude;pressure_sealevel;temperature;humidity
46379;BME280;32084;42.254;22.744;2023-04-25T00:01:41;94497.22;;;12.35;93.53
46379;BME280;32084;42.254;22.744;2023-04-25T00:04:07;94501.84;;;12.41;93.19
46379;BME280;32084;42.254;22.744;2023-04-25T00:06:36;94496.28;;;12.42;92.14
46379;BME280;32084;42.254;22.744;2023-04-25T00:09:03;94500.53;;;12.37;92.38
46379;BME280;32084;42.254;22.744;2023-04-25T00:11:29;94495.63;;;12.40;92.97
46379;BME280;32084;42.254;22.744;2023-04-25T00:13:56;94486.59;;;12.41;93.54
46379;BME280;32084;42.254;22.744;2023-04-25T00:16:22;94485.78;;;12.41;93.67
46379;BME280;32084;42.254;22.744;2023-04-25T00:18:49;94484.28;;;12.38;93.43
46379;BME280;32084;42.254;22.744;2023-04-25T00:21:19;94489.41;;;12.33;93.48
46379;BME280;32084;42.254;22.744;2023-04-25T00:23:46;94482.19;;;12.34;94.67
46379;BME280;32084;42.254;22.744;2023-04-25T00:26:12;94485.03;;;12.32;94.95
46379;BME280;32084;42.254;22.744;2023-04-25T00:28:38;94484.59;;;12.28;93.98
46379;BME280;32084;42.254;22.744;2023-04-25T00:31:04;94478.72;;;12.03;95.63
46379;BME280;32084;42.254;22.744;2023-04-25T00:33:30;94470.50;;;12.05;96.59
46379;BME280;32084;42.254;22.744;2023-04-25T00:35:56;94472.59;;;12.09;96.50
46379;BME280;32084;42.254;22.744;2023-04-25T00:38:22;94469.47;;;12.06;95.36
46379;BME280;32084;42.254;22.744;2023-04-25T00:40:48;94480.63;;;12.09;95.60
46379;BME280;32084;42.254;22.744;2023-04-25T00:43:14;94481.16;;;12.20;96.03
46379;BME280;32084;42.254;22.744;2023-04-25T00:45:40;94469.31;;;12.29;95.90
46379;BME280;32084;42.254;22.744;2023-04-25T00:48:08;94464.91;;;12.21;96.31
46379;BME280;32084;42.254;22.744;2023-04-25T00:50:35;94468.63;;;12.20;96.08
46379;BME280;32084;42.254;22.744;2023-04-25T00:53:02;94464.34;;;12.26;95.26
46379;BME280;32084;42.254;22.744;2023-04-25T00:55:29;94458.13;;;12.25;94.68
46379;BME280;32084;42.254;22.744;2023-04-25T00:57:57;94449.22;;;12.18;94.84
46379;BME280;32084;42.254;22.744;2023-04-25T01:00:23;94452.25;;;12.15;95.47
46379;BME280;32084;42.254;22.744;2023-04-25T01:02:49;94448.66;;;12.08;95.52
46379;BME280;32084;42.254;22.744;2023-04-25T01:05:16;94447.84;;;11.78;95.64
46379;BME280;32084;42.254;22.744;2023-04-25T01:07:44;94446.19;;;11.77;96.21
46379;BME280;32084;42.254;22.744;2023-04-25T01:10:11;94442.13;;;11.81;96.18
46379;BME280;32084;42.254;22.744;2023-04-25T01:12:37;94438.22;;;11.83;95.01
46379;BME280;32084;42.254;22.744;2023-04-25T01:15:03;94432.44;;;11.50;94.09
46379;BME280;32084;42.254;22.744;2023-04-25T01:17:29;94438.13;;;11.32;95.02
46379;BME280;32084;42.254;22.744;2023-04-25T01:19:55;94437.94;;;11.19;95.22
46379;BME280;32084;42.254;22.744;2023-04-25T01:22:21;94433.13;;;11.14;96.03
46379;BME280;32084;42.254;22.744;2023-04-25T01:24:47;94439.16;;;11.31;96.60
46379;BME280;32084;42.254;22.744;2023-04-25T01:27:14;94434.66;;;11.46;96.41
46379;BME280;32084;42.254;22.744;2023-04-25T01:29:40;94426.41;;;11.63;96.30
46379;BME280;32084;42.254;22.744;2023-04-25T01:32:07;94429.38;;;11.68;96.32
46379;BME280;32084;42.254;22.744;2023-04-25T01:34:33;94418.13;;;11.72;96.23
46379;BME280;32084;42.254;22.744;2023-04-25T01:36:59;94428.72;;;11.81;95.93
46379;BME280;32084;42.254;22.744;2023-04-25T01:39:26;94432.31;;;11.88;95.27
46379;BME280;32084;42.254;22.744;2023-04-25T01:41:53;94433.72;;;11.84;94.82
46379;BME280;32084;42.254;22.744;2023-04-25T01:44:19;94433.16;;;11.73;93.61
46379;BME280;32084;42.254;22.744;2023-04-25T01:46:45;94433.44;;;11.64;93.81
46379;BME280;32084;42.254;22.744;2023-04-25T01:49:11;94428.53;;;11.52;94.33
46379;BME280;32084;42.254;22.744;2023-04-25T01:51:37;94429.94;;;11.48;94.17
46379;BME280;32084;42.254;22.744;2023-04-25T01:54:03;94436.28;;;11.47;93.79
46379;BME280;32084;42.254;22.744;2023-04-25T01:56:29;94423.84;;;11.40;93.64
46379;BME280;32084;42.254;22.744;2023-04-25T01:58:56;94419.03;;;11.35;93.59
46379;BME280;32084;42.254;22.744;2023-04-25T02:01:22;94415.72;;;11.33;95.09
46379;BME280;32084;42.254;22.744;2023-04-25T02:03:48;94404.72;;;11.28;94.19
46379;BME280;32084;42.254;22.744;2023-04-25T02:06:14;94403.53;;;11.30;94.25
46379;BME280;32084;42.254;22.744;2023-04-25T02:08:40;94411.75;;;11.29;94.42
46379;BME280;32084;42.254;22.744;2023-04-25T02:11:06;94404.91;;;11.26;94.67
46379;BME280;32084;42.254;22.744;2023-04-25T02:13:32;94394.03;;;11.28;93.88
46379;BME280;32084;42.254;22.744;2023-04-25T02:15:58;94397.41;;;11.07;94.01
46379;BME280;32084;42.254;22.744;2023-04-25T02:18:24;94387.53;;;10.92;94.83
46379;BME280;32084;42.254;22.744;2023-04-25T02:20:51;94390.94;;;10.86;95.97
46379;BME280;32084;42.254;22.744;2023-04-25T02:23:18;94388.28;;;11.01;95.96
46379;BME280;32084;42.254;22.744;2023-04-25T02:25:44;94389.78;;;11.19;95.59
46379;BME280;32084;42.254;22.744;2023-04-25T02:28:11;94389.31;;;11.30;94.81
46379;BME280;32084;42.254;22.744;2023-04-25T02:30:37;94384.59;;;11.32;94.28
46379;BME280;32084;42.254;22.744;2023-04-25T02:33:03;94390.16;;;11.16;94.61
46379;BME280;32084;42.254;22.744;2023-04-25T02:35:29;94385.03;;;11.06;95.21
46379;BME280;32084;42.254;22.744;2023-04-25T02:37:55;94382.94;;;11.16;95.04
46379;BME280;32084;42.254;22.744;2023-04-25T02:40:21;94394.38;;;11.25;94.75
46379;BME280;32084;42.254;22.744;2023-04-25T02:42:47;94406.19;;;11.30;94.81
46379;BME280;32084;42.254;22.744;2023-04-25T02:45:13;94403.91;;;11.42;94.30
46379;BME280;32084;42.254;22.744;2023-04-25T02:47:39;94392.81;;;11.45;93.95
46379;BME280;32084;42.254;22.744;2023-04-25T02:50:05;94399.38;;;11.43;93.54
46379;BME280;32084;42.254;22.744;2023-04-25T02:52:31;94395.69;;;11.44;93.85
46379;BME280;32084;42.254;22.744;2023-04-25T02:54:57;94395.59;;;11.37;94.01
46379;BME280;32084;42.254;22.744;2023-04-25T02:57:23;94395.50;;;11.30;94.45
46379;BME280;32084;42.254;22.744;2023-04-25T02:59:49;94392.47;;;11.33;94.35
46379;BME280;32084;42.254;22.744;2023-04-25T03:02:15;94397.06;;;11.40;95.22
46379;BME280;32084;42.254;22.744;2023-04-25T03:04:41;94392.66;;;11.47;95.20
46379;BME280;32084;42.254;22.744;2023-04-25T03:07:07;94381.00;;;11.40;94.36
46379;BME280;32084;42.254;22.744;2023-04-25T03:09:33;94386.09;;;11.35;94.66
46379;BME280;32084;42.254;22.744;2023-04-25T03:11:59;94384.72;;;11.39;94.07
46379;BME280;32084;42.254;22.744;2023-04-25T03:14:26;94386.81;;;11.43;94.64
46379;BME280;32084;42.254;22.744;2023-04-25T03:16:51;94390.91;;;11.39;95.09
46379;BME280;32084;42.254;22.744;2023-04-25T03:19:17;94401.97;;;11.36;95.02
46379;BME280;32084;42.254;22.744;2023-04-25T03:21:44;94395.97;;;11.34;94.68
46379;BME280;32084;42.254;22.744;2023-04-25T03:24:10;94389.94;;;11.17;96.07
46379;BME280;32084;42.254;22.744;2023-04-25T03:26:39;94380.38;;;11.08;96.52
46379;BME280;32084;42.254;22.744;2023-04-25T03:29:05;94381.50;;;11.13;96.03
46379;BME280;32084;42.254;22.744;2023-04-25T03:31:31;94384.34;;;11.27;96.35
46379;BME280;32084;42.254;22.744;2023-04-25T03:33:57;94381.19;;;11.38;95.70
46379;BME280;32084;42.254;22.744;2023-04-25T03:39:44;94387.00;;;11.12;96.98
46379;BME280;32084;42.254;22.744;2023-04-25T03:42:10;94387.22;;;11.25;96.92
46379;BME280;32084;42.254;22.744;2023-04-25T03:44:36;94395.78;;;11.36;97.15
46379;BME280;32084;42.254;22.744;2023-04-25T03:47:03;94391.53;;;11.41;96.20
46379;BME280;32084;42.254;22.744;2023-04-25T03:49:30;94392.28;;;11.50;95.20
46379;BME280;32084;42.254;22.744;2023-04-25T03:51:56;94385.72;;;11.52;95.88
46379;BME280;32084;42.254;22.744;2023-04-25T03:54:22;94384.59;;;11.62;95.81
46379;BME280;32084;42.254;22.744;2023-04-25T03:56:48;94391.25;;;11.66;95.78
46379;BME280;32084;42.254;22.744;2023-04-25T03:59:14;94395.31;;;11.62;95.78
46379;BME280;32084;42.254;22.744;2023-04-25T04:01:40;94385.66;;;11.46;96.06
46379;BME280;32084;42.254;22.744;2023-04-25T04:04:06;94382.22;;;11.37;97.33
46379;BME280;32084;42.254;22.744;2023-04-25T04:06:32;94382.50;;;11.42;97.38
46379;BME280;32084;42.254;22.744;2023-04-25T04:08:58;94394.69;;;11.60;97.47
46379;BME280;32084;42.254;22.744;2023-04-25T04:11:25;94391.25;;;11.66;97.33
46379;BME280;32084;42.254;22.744;2023-04-25T04:13:51;94392.53;;;11.55;98.34
46379;BME280;32084;42.254;22.744;2023-04-25T04:16:17;94393.56;;;11.69;97.19
46379;BME280;32084;42.254;22.744;2023-04-25T04:18:45;94391.41;;;11.79;97.16
46379;BME280;32084;42.254;22.744;2023-04-25T04:21:11;94392.16;;;11.73;97.07
46379;BME280;32084;42.254;22.744;2023-04-25T04:23:37;94390.88;;;11.69;97.37
46379;BME280;32084;42.254;22.744;2023-04-25T04:26:03;94396.13;;;11.77;96.79
46379;BME280;32084;42.254;22.744;2023-04-25T04:28:29;94393.34;;;11.85;96.56
46379;BME280;32084;42.254;22.744;2023-04-25T04:30:55;94390.94;;;11.76;96.70
46379;BME280;32084;42.254;22.744;2023-04-25T04:33:21;94396.25;;;11.69;97.72
46379;BME280;32084;42.254;22.744;2023-04-25T04:35:50;94403.69;;;11.73;98.04
46379;BME280;32084;42.254;22.744;2023-04-25T04:38:19;94402.31;;;11.63;98.93
46379;BME280;32084;42.254;22.744;2023-04-25T04:40:45;94410.28;;;11.71;98.21
46379;BME280;32084;42.254;22.744;2023-04-25T04:43:12;94404.03;;;11.85;97.97
46379;BME280;32084;42.254;22.744;2023-04-25T04:45:38;94407.94;;;11.98;96.53
46379;BME280;32084;42.254;22.744;2023-04-25T04:48:06;94396.03;;;12.00;96.65
46379;BME280;32084;42.254;22.744;2023-04-25T04:50:32;94393.88;;;12.10;96.34
46379;BME280;32084;42.254;22.744;2023-04-25T04:52:58;94384.00;;;12.11;97.42
46379;BME280;32084;42.254;22.744;2023-04-25T04:55:24;94388.72;;;12.09;96.27
46379;BME280;32084;42.254;22.744;2023-04-25T04:57:50;94385.00;;;12.10;95.66
46379;BME280;32084;42.254;22.744;2023-04-25T05:00:16;94384.78;;;12.26;95.28
46379;BME280;32084;42.254;22.744;2023-04-25T05:02:42;94394.19;;;12.37;95.00
46379;BME280;32084;42.254;22.744;2023-04-25T05:05:08;94402.53;;;12.70;93.54
46379;BME280;32084;42.254;22.744;2023-04-25T05:07:34;94416.06;;;12.84;91.50
46379;BME280;32084;42.254;22.744;2023-04-25T05:10:00;94403.94;;;12.66;91.27
46379;BME280;32084;42.254;22.744;2023-04-25T05:12:26;94397.84;;;12.15;94.02
46379;BME280;32084;42.254;22.744;2023-04-25T05:14:52;94394.59;;;12.19;95.07
46379;BME280;32084;42.254;22.744;2023-04-25T05:17:18;94391.72;;;12.42;94.99
46379;BME280;32084;42.254;22.744;2023-04-25T05:19:44;94396.59;;;12.75;92.07
46379;BME280;32084;42.254;22.744;2023-04-25T05:22:10;94334.47;;;12.72;90.72
46379;BME280;32084;42.254;22.744;2023-04-25T05:24:36;94398.44;;;13.53;88.48
46379;BME280;32084;42.254;22.744;2023-04-25T05:27:02;94393.41;;;13.84;86.50
46379;BME280;32084;42.254;22.744;2023-04-25T05:29:28;94403.25;;;14.19;87.25
46379;BME280;32084;42.254;22.744;2023-04-25T05:31:54;94389.66;;;14.34;86.76
46379;BME280;32084;42.254;22.744;2023-04-25T05:34:20;94389.97;;;14.66;88.47
46379;BME280;32084;42.254;22.744;2023-04-25T05:36:46;94389.81;;;15.07;84.51
46379;BME280;32084;42.254;22.744;2023-04-25T05:39:17;94392.47;;;15.34;82.84
46379;BME280;32084;42.254;22.744;2023-04-25T05:41:43;94389.16;;;15.52;81.35
46379;BME280;32084;42.254;22.744;2023-04-25T05:44:09;94383.94;;;15.57;80.69
46379;BME280;32084;42.254;22.744;2023-04-25T05:46:35;94380.59;;;15.68;79.92
46379;BME280;32084;42.254;22.744;2023-04-25T05:49:01;94381.88;;;15.52;78.56
46379;BME280;32084;42.254;22.744;2023-04-25T05:51:27;94375.66;;;15.38;81.41
46379;BME280;32084;42.254;22.744;2023-04-25T05:53:54;94375.44;;;15.60;81.74
46379;BME280;32084;42.254;22.744;2023-04-25T05:56:20;94389.56;;;15.29;80.82
46379;BME280;32084;42.254;22.744;2023-04-25T05:58:46;94391.25;;;15.16;82.39
46379;BME280;32084;42.254;22.744;2023-04-25T06:01:12;94385.22;;;14.81;83.01
46379;BME280;32084;42.254;22.744;2023-04-25T06:03:38;94379.84;;;14.68;83.76
46379;BME280;32084;42.254;22.744;2023-04-25T06:06:05;94380.84;;;14.53;85.28
46379;BME280;32084;42.254;22.744;2023-04-25T06:08:31;94390.19;;;14.71;85.43
46379;BME280;32084;42.254;22.744;2023-04-25T06:10:57;94391.38;;;15.81;83.26
46379;BME280;32084;42.254;22.744;2023-04-25T06:13:23;94388.09;;;16.25;80.83
46379;BME280;32084;42.254;22.744;2023-04-25T06:15:49;94384.44;;;17.14;77.29
46379;BME280;32084;42.254;22.744;2023-04-25T06:18:15;94388.22;;;17.07;76.96
46379;BME280;32084;42.254;22.744;2023-04-25T06:20:41;94394.19;;;16.90;73.10
46379;BME280;32084;42.254;22.744;2023-04-25T06:23:07;94398.72;;;17.22;72.82
46379;BME280;32084;42.254;22.744;2023-04-25T06:25:33;94393.00;;;17.11;70.93
46379;BME280;32084;42.254;22.744;2023-04-25T06:27:59;94394.84;;;17.11;71.26
46379;BME280;32084;42.254;22.744;2023-04-25T06:30:25;94399.31;;;16.98;71.33
46379;BME280;32084;42.254;22.744;2023-04-25T06:32:52;94398.13;;;17.63;71.80
46379;BME280;32084;42.254;22.744;2023-04-25T06:35:18;94395.78;;;18.10;71.99
46379;BME280;32084;42.254;22.744;2023-04-25T06:37:45;94397.13;;;18.20;69.60
46379;BME280;32084;42.254;22.744;2023-04-25T06:40:11;94403.91;;;18.59;66.82
46379;BME280;32084;42.254;22.744;2023-04-25T06:42:37;94412.88;;;18.90;65.54
46379;BME280;32084;42.254;22.744;2023-04-25T06:45:03;94402.97;;;18.53;65.42
46379;BME280;32084;42.254;22.744;2023-04-25T06:47:29;94401.63;;;18.75;64.23
46379;BME280;32084;42.254;22.744;2023-04-25T06:49:56;94403.56;;;18.86;64.90
46379;BME280;32084;42.254;22.744;2023-04-25T06:52:21;94394.94;;;18.59;65.19
46379;BME280;32084;42.254;22.744;2023-04-25T06:54:47;94397.44;;;18.90;65.24
46379;BME280;32084;42.254;22.744;2023-04-25T06:57:13;94393.31;;;19.42;63.59
46379;BME280;32084;42.254;22.744;2023-04-25T06:59:40;94398.66;;;19.96;59.96
46379;BME280;32084;42.254;22.744;2023-04-25T07:02:06;94398.38;;;19.50;59.42
46379;BME280;32084;42.254;22.744;2023-04-25T07:04:32;94394.03;;;19.49;60.58
46379;BME280;32084;42.254;22.744;2023-04-25T07:06:58;94394.16;;;19.54;60.86
46379;BME280;32084;42.254;22.744;2023-04-25T07:09:26;94394.50;;;19.69;57.56
46379;BME280;32084;42.254;22.744;2023-04-25T07:11:52;94392.28;;;19.78;56.79
46379;BME280;32084;42.254;22.744;2023-04-25T07:14:18;94386.47;;;20.10;56.29
46379;BME280;32084;42.254;22.744;2023-04-25T07:16:44;94373.50;;;19.29;60.05
46379;BME280;32084;42.254;22.744;2023-04-25T07:19:11;94377.63;;;18.78;60.04
46379;BME280;32084;42.254;22.744;2023-04-25T07:21:36;94372.69;;;19.41;61.35
46379;BME280;32084;42.254;22.744;2023-04-25T07:24:03;94375.13;;;20.01;54.92
46379;BME280;32084;42.254;22.744;2023-04-25T07:26:29;94367.53;;;20.27;54.75
46379;BME280;32084;42.254;22.744;2023-04-25T07:28:55;94369.41;;;20.38;53.32
46379;BME280;32084;42.254;22.744;2023-04-25T07:31:21;94362.19;;;20.44;54.70
46379;BME280;32084;42.254;22.744;2023-04-25T07:33:48;94368.75;;;20.60;52.91
46379;BME280;32084;42.254;22.744;2023-04-25T07:36:14;94365.94;;;20.55;57.49
46379;BME280;32084;42.254;22.744;2023-04-25T07:38:41;94364.03;;;20.55;53.51
46379;BME280;32084;42.254;22.744;2023-04-25T07:41:07;94359.28;;;20.91;53.83
46379;BME280;32084;42.254;22.744;2023-04-25T07:43:33;94363.22;;;20.83;50.42
46379;BME280;32084;42.254;22.744;2023-04-25T07:45:59;94348.59;;;21.35;52.16
46379;BME280;32084;42.254;22.744;2023-04-25T07:48:25;94356.41;;;21.32;48.73
46379;BME280;32084;42.254;22.744;2023-04-25T07:50:51;94347.72;;;21.47;47.05
46379;BME280;32084;42.254;22.744;2023-04-25T07:53:17;94346.03;;;20.95;47.58
46379;BME280;32084;42.254;22.744;2023-04-25T07:55:44;94349.22;;;20.92;45.46
46379;BME280;32084;42.254;22.744;2023-04-25T07:58:10;94346.66;;;21.48;46.20
46379;BME280;32084;42.254;22.744;2023-04-25T08:00:37;94341.50;;;22.07;47.82
46379;BME280;32084;42.254;22.744;2023-04-25T08:03:03;94338.50;;;21.87;49.55
46379;BME280;32084;42.254;22.744;2023-04-25T08:05:29;94334.09;;;22.02;48.05
46379;BME280;32084;42.254;22.744;2023-04-25T08:07:55;94338.50;;;21.87;46.54
46379;BME280;32084;42.254;22.744;2023-04-25T08:10:22;94348.53;;;22.25;45.93
46379;BME280;32084;42.254;22.744;2023-04-25T08:12:48;94326.69;;;22.42;46.65
46379;BME280;32084;42.254;22.744;2023-04-25T08:15:14;94336.66;;;22.31;45.52
46379;BME280;32084;42.254;22.744;2023-04-25T08:17:41;94326.50;;;22.49;49.35
46379;BME280;32084;42.254;22.744;2023-04-25T08:20:07;94336.84;;;22.47;46.81
46379;BME280;32084;42.254;22.744;2023-04-25T08:22:33;94334.97;;;21.86;45.20
46379;BME280;32084;42.254;22.744;2023-04-25T08:24:59;94341.91;;;21.77;42.04
46379;BME280;32084;42.254;22.744;2023-04-25T08:27:25;94325.38;;;22.45;45.86
46379;BME280;32084;42.254;22.744;2023-04-25T08:29:51;94332.38;;;22.63;43.59
46379;BME280;32084;42.254;22.744;2023-04-25T08:32:18;94334.53;;;22.88;43.36
46379;BME280;32084;42.254;22.744;2023-04-25T08:34:44;94330.81;;;22.45;45.88
46379;BME280;32084;42.254;22.744;2023-04-25T08:37:10;94334.84;;;22.64;43.50
46379;BME280;32084;42.254;22.744;2023-04-25T08:39:36;94331.38;;;22.47;42.64
46379;BME280;32084;42.254;22.744;2023-04-25T08:42:04;94331.03;;;22.92;44.59
46379;BME280;32084;42.254;22.744;2023-04-25T08:44:33;94341.16;;;23.56;45.02
46379;BME280;32084;42.254;22.744;2023-04-25T08:47:01;94338.88;;;23.43;45.15
46379;BME280;32084;42.254;22.744;2023-04-25T08:49:28;94342.03;;;22.26;41.87
46379;BME280;32084;42.254;22.744;2023-04-25T08:51:55;94341.66;;;21.78;43.26
46379;BME280;32084;42.254;22.744;2023-04-25T08:54:25;94348.28;;;22.49;39.10
46379;BME280;32084;42.254;22.744;2023-04-25T08:56:54;94342.41;;;22.84;37.92
46379;BME280;32084;42.254;22.744;2023-04-25T08:59:20;94348.63;;;22.79;38.78
46379;BME280;32084;42.254;22.744;2023-04-25T09:01:47;94344.38;;;22.39;36.71
46379;BME280;32084;42.254;22.744;2023-04-25T09:04:13;94327.44;;;22.15;40.02
46379;BME280;32084;42.254;22.744;2023-04-25T09:06:39;94338.56;;;21.53;37.87
46379;BME280;32084;42.254;22.744;2023-04-25T09:09:05;94334.00;;;21.24;39.10
46379;BME280;32084;42.254;22.744;2023-04-25T09:11:33;94334.59;;;20.64;39.48
46379;BME280;32084;42.254;22.744;2023-04-25T09:16:56;94340.03;;;19.95;41.23
46379;BME280;32084;42.254;22.744;2023-04-25T09:19:23;94325.41;;;19.84;42.64
46379;BME280;32084;42.254;22.744;2023-04-25T09:21:50;94323.00;;;20.40;41.11
46379;BME280;32084;42.254;22.744;2023-04-25T09:24:20;94317.03;;;20.26;40.99
46379;BME280;32084;42.254;22.744;2023-04-25T09:26:55;94321.16;;;20.28;39.95
46379;BME280;32084;42.254;22.744;2023-04-25T09:29:24;94322.97;;;20.23;41.24
46379;BME280;32084;42.254;22.744;2023-04-25T09:31:57;94321.56;;;20.08;42.66
46379;BME280;32084;42.254;22.744;2023-04-25T09:34:39;94319.59;;;20.04;39.98
46379;BME280;32084;42.254;22.744;2023-04-25T09:37:06;94321.06;;;19.83;42.96
46379;BME280;32084;42.254;22.744;2023-04-25T09:39:32;94318.34;;;19.83;43.63
46379;BME280;32084;42.254;22.744;2023-04-25T09:41:59;94332.66;;;20.07;42.20
46379;BME280;32084;42.254;22.744;2023-04-25T09:44:25;94339.50;;;20.09;41.08
46379;BME280;32084;42.254;22.744;2023-04-25T09:46:51;94328.63;;;19.81;41.21
46379;BME280;32084;42.254;22.744;2023-04-25T09:49:20;94323.16;;;19.69;43.07
46379;BME280;32084;42.254;22.744;2023-04-25T09:52:08;94325.53;;;19.54;41.94
46379;BME280;32084;42.254;22.744;2023-04-25T09:54:33;94321.06;;;19.36;43.18
46379;BME280;32084;42.254;22.744;2023-04-25T09:57:02;94307.75;;;19.10;44.41
46379;BME280;32084;42.254;22.744;2023-04-25T09:59:35;94303.75;;;19.01;44.07
46379;BME280;32084;42.254;22.744;2023-04-25T10:02:03;94310.78;;;19.02;43.35
46379;BME280;32084;42.254;22.744;2023-04-25T10:04:31;94303.75;;;19.25;44.01
46379;BME280;32084;42.254;22.744;2023-04-25T10:07:00;94301.13;;;19.54;42.92
46379;BME280;32084;42.254;22.744;2023-04-25T10:09:27;94300.19;;;19.60;42.15
46379;BME280;32084;42.254;22.744;2023-04-25T10:11:57;94281.81;;;19.62;42.02
46379;BME280;32084;42.254;22.744;2023-04-25T10:14:24;94294.91;;;19.53;41.93
46379;BME280;32084;42.254;22.744;2023-04-25T10:16:50;94295.00;;;19.58;42.20
46379;BME280;32084;42.254;22.744;2023-04-25T10:19:19;94299.84;;;19.44;41.96
46379;BME280;32084;42.254;22.744;2023-04-25T10:21:47;94304.34;;;19.03;42.82
46379;BME280;32084;42.254;22.744;2023-04-25T10:24:14;94287.03;;;18.62;44.29
46379;BME280;32084;42.254;22.744;2023-04-25T10:26:41;94270.91;;;18.56;47.61
46379;BME280;32084;42.254;22.744;2023-04-25T10:29:07;94262.63;;;18.39;48.72
46379;BME280;32084;42.254;22.744;2023-04-25T10:31:37;94263.59;;;18.44;49.43
46379;BME280;32084;42.254;22.744;2023-04-25T10:34:10;94262.19;;;18.53;48.35
46379;BME280;32084;42.254;22.744;2023-04-25T10:36:36;94257.47;;;18.49;48.52
46379;BME280;32084;42.254;22.744;2023-04-25T10:39:04;94260.69;;;18.69;48.26
46379;BME280;32084;42.254;22.744;2023-04-25T10:41:52;94254.50;;;18.81;46.93
46379;BME280;32084;42.254;22.744;2023-04-25T10:44:18;94253.69;;;18.92;48.15
46379;BME280;32084;42.254;22.744;2023-04-25T10:46:44;94243.22;;;18.96;47.51
46379;BME280;32084;42.254;22.744;2023-04-25T10:49:15;94250.97;;;19.04;44.82
46379;BME280;32084;42.254;22.744;2023-04-25T10:51:58;94245.78;;;18.90;46.45
46379;BME280;32084;42.254;22.744;2023-04-25T10:54:40;94250.44;;;18.71;46.48
46379;BME280;32084;42.254;22.744;2023-04-25T10:57:06;94258.34;;;18.61;45.89
46379;BME280;32084;42.254;22.744;2023-04-25T10:59:32;94269.91;;;18.38;47.04
46379;BME280;32084;42.254;22.744;2023-04-25T11:01:58;94276.66;;;17.87;49.48
46379;BME280;32084;42.254;22.744;2023-04-25T11:04:31;94277.25;;;17.52;50.43
46379;BME280;32084;42.254;22.744;2023-04-25T11:09:36;94271.63;;;16.91;55.24
46379;BME280;32084;42.254;22.744;2023-04-25T11:12:04;94277.28;;;16.58;56.61
46379;BME280;32084;42.254;22.744;2023-04-25T11:14:30;94279.22;;;16.51;56.80
46379;BME280;32084;42.254;22.744;2023-04-25T11:16:57;94277.75;;;16.48;56.70
46379;BME280;32084;42.254;22.744;2023-04-25T11:19:24;94278.22;;;16.45;58.39
46379;BME280;32084;42.254;22.744;2023-04-25T11:21:50;94282.00;;;16.37;60.66
46379;BME280;32084;42.254;22.744;2023-04-25T11:24:21;94276.22;;;16.34;62.60
46379;BME280;32084;42.254;22.744;2023-04-25T11:26:50;94281.34;;;16.42;63.08
46379;BME280;32084;42.254;22.744;2023-04-25T11:29:17;94278.34;;;16.82;62.04
46379;BME280;32084;42.254;22.744;2023-04-25T11:31:43;94280.06;;;17.20;58.06
46379;BME280;32084;42.254;22.744;2023-04-25T11:34:11;94275.81;;;17.31;57.69
46379;BME280;32084;42.254;22.744;2023-04-25T11:36:38;94269.44;;;17.25;57.09
46379;BME280;32084;42.254;22.744;2023-04-25T11:39:04;94274.69;;;17.20;58.02
46379;BME280;32084;42.254;22.744;2023-04-25T11:41:31;94264.00;;;17.07;56.29
46379;BME280;32084;42.254;22.744;2023-04-25T11:43:57;94252.72;;;16.91;57.83
46379;BME280;32084;42.254;22.744;2023-04-25T11:46:23;94260.06;;;16.84;60.73
46379;BME280;32084;42.254;22.744;2023-04-25T11:48:49;94250.94;;;16.85;60.82
46379;BME280;32084;42.254;22.744;2023-04-25T11:51:16;94259.63;;;16.81;60.62
46379;BME280;32084;42.254;22.744;2023-04-25T11:53:44;94269.53;;;16.93;60.11
46379;BME280;32084;42.254;22.744;2023-04-25T11:56:10;94276.53;;;17.01;58.10
46379;BME280;32084;42.254;22.744;2023-04-25T12:01:26;94287.94;;;17.03;56.43
46379;BME280;32084;42.254;22.744;2023-04-25T12:03:52;94294.03;;;16.92;58.18
46379;BME280;32084;42.254;22.744;2023-04-25T12:06:18;94284.53;;;16.89;58.20
46379;BME280;32084;42.254;22.744;2023-04-25T12:09:03;94292.31;;;16.72;60.45
46379;BME280;32084;42.254;22.744;2023-04-25T12:11:30;94278.91;;;16.66;64.28
46379;BME280;32084;42.254;22.744;2023-04-25T12:14:01;94283.06;;;16.62;65.83
46379;BME280;32084;42.254;22.744;2023-04-25T12:16:27;94283.66;;;16.64;66.85
46379;BME280;32084;42.254;22.744;2023-04-25T12:18:53;94290.78;;;16.58;68.33
46379;BME280;32084;42.254;22.744;2023-04-25T12:21:20;94287.59;;;16.68;66.22
46379;BME280;32084;42.254;22.744;2023-04-25T12:23:46;94283.53;;;16.52;66.88
46379;BME280;32084;42.254;22.744;2023-04-25T12:26:12;94290.72;;;16.39;64.68
46379;BME280;32084;42.254;22.744;2023-04-25T12:28:38;94290.50;;;16.41;64.26
46379;BME280;32084;42.254;22.744;2023-04-25T12:31:05;94290.50;;;16.41;64.70
46379;BME280;32084;42.254;22.744;2023-04-25T12:33:33;94287.31;;;16.51;65.33
46379;BME280;32084;42.254;22.744;2023-04-25T12:35:59;94283.94;;;16.55;66.47
46379;BME280;32084;42.254;22.744;2023-04-25T12:38:28;94279.53;;;16.61;67.87
46379;BME280;32084;42.254;22.744;2023-04-25T12:40:57;94288.19;;;16.70;67.08
46379;BME280;32084;42.254;22.744;2023-04-25T12:43:24;94283.78;;;16.75;66.41
46379;BME280;32084;42.254;22.744;2023-04-25T12:45:51;94303.91;;;16.79;68.38
46379;BME280;32084;42.254;22.744;2023-04-25T12:48:17;94301.88;;;17.00;67.26
46379;BME280;32084;42.254;22.744;2023-04-25T12:50:43;94310.22;;;16.98;67.28
46379;BME280;32084;42.254;22.744;2023-04-25T12:53:10;94312.81;;;16.87;66.00
46379;BME280;32084;42.254;22.744;2023-04-25T12:55:37;94304.31;;;16.83;65.19
46379;BME280;32084;42.254;22.744;2023-04-25T12:58:03;94303.28;;;16.77;66.88
46379;BME280;32084;42.254;22.744;2023-04-25T13:00:29;94302.66;;;16.82;66.59